sensor_id;sensor_type;location;lat;lon;timestamp;pressure;altitude;pressure_sealevel;temperature;humidity
21276;BME280;36472;52.170;20.884;2023-07-31T00:00:29;99820.91;;;20.23;77.14
21276;BME280;36472;52.170;20.884;2023-07-31T00:03:18;99818.00;;;20.09;76.66
21276;BME280;36472;52.170;20.884;2023-07-31T00:05:47;99826.34;;;20.06;77.74
21276;BME280;36472;52.170;20.884;2023-07-31T00:08:18;99819.63;;;20.10;77.79
21276;BME280;36472;52.170;20.884;2023-07-31T00:10:46;99825.69;;;20.04;77.70
21276;BME280;36472;52.170;20.884;2023-07-31T00:13:15;99823.19;;;20.03;76.99
21276;BME280;36472;52.170;20.884;2023-07-31T00:15:44;99838.06;;;19.97;77.75
21276;BME280;36472;52.170;20.884;2023-07-31T00:18:13;99833.06;;;19.94;77.23
21276;BME280;36472;52.170;20.884;2023-07-31T00:20:42;99831.41;;;19.93;77.46
21276;BME280;36472;52.170;20.884;2023-07-31T00:23:11;99834.06;;;19.93;77.49
21276;BME280;36472;52.170;20.884;2023-07-31T00:25:42;99826.06;;;19.93;77.03
21276;BME280;36472;52.170;20.884;2023-07-31T00:28:11;99829.38;;;19.95;77.34
21276;BME280;36472;52.170;20.884;2023-07-31T00:30:40;99820.75;;;19.93;76.78
21276;BME280;36472;52.170;20.884;2023-07-31T00:33:09;99815.75;;;19.90;76.93
21276;BME280;36472;52.170;20.884;2023-07-31T00:35:38;99809.13;;;19.86;77.25
21276;BME280;36472;52.170;20.884;2023-07-31T00:38:07;99803.78;;;19.86;77.26
21276;BME280;36472;52.170;20.884;2023-07-31T00:40:36;99804.25;;;19.89;77.59
21276;BME280;36472;52.170;20.884;2023-07-31T00:43:07;99813.94;;;19.90;77.11
21276;BME280;36472;52.170;20.884;2023-07-31T00:45:36;99809.75;;;19.88;77.03
21276;BME280;36472;52.170;20.884;2023-07-31T00:48:06;99808.59;;;19.90;77.05
21276;BME280;36472;52.170;20.884;2023-07-31T00:50:35;99814.28;;;19.87;76.85
21276;BME280;36472;52.170;20.884;2023-07-31T00:53:05;99815.44;;;19.85;77.32
21276;BME280;36472;52.170;20.884;2023-07-31T00:55:34;99805.97;;;19.82;77.24
21276;BME280;36472;52.170;20.884;2023-07-31T00:58:03;99820.78;;;19.85;78.30
21276;BME280;36472;52.170;20.884;2023-07-31T01:00:33;99812.84;;;19.76;78.52
21276;BME280;36472;52.170;20.884;2023-07-31T01:03:02;99825.84;;;19.71;79.23
21276;BME280;36472;52.170;20.884;2023-07-31T01:05:42;99823.16;;;19.71;78.81
21276;BME280;36472;52.170;20.884;2023-07-31T01:08:20;99825.16;;;19.69;78.41
21276;BME280;36472;52.170;20.884;2023-07-31T01:11:00;99827.97;;;19.68;78.69
21276;BME280;36472;52.170;20.884;2023-07-31T01:13:31;99827.16;;;19.67;78.82
21276;BME280;36472;52.170;20.884;2023-07-31T01:16:01;99819.50;;;19.64;79.06
21276;BME280;36472;52.170;20.884;2023-07-31T01:18:30;99829.19;;;19.65;79.99
21276;BME280;36472;52.170;20.884;2023-07-31T01:21:21;99820.22;;;19.58;80.30
21276;BME280;36472;52.170;20.884;2023-07-31T01:24:19;99815.41;;;19.53;80.13
21276;BME280;36472;52.170;20.884;2023-07-31T01:26:56;99812.75;;;19.45;81.64
21276;BME280;36472;52.170;20.884;2023-07-31T01:29:38;99821.78;;;19.44;80.70
21276;BME280;36472;52.170;20.884;2023-07-31T01:32:13;99827.44;;;19.41;81.01
21276;BME280;36472;52.170;20.884;2023-07-31T01:34:43;99819.63;;;19.39;81.12
21276;BME280;36472;52.170;20.884;2023-07-31T01:37:12;99817.44;;;19.35;81.98
21276;BME280;36472;52.170;20.884;2023-07-31T01:39:41;99821.97;;;19.34;82.05
21276;BME280;36472;52.170;20.884;2023-07-31T01:42:12;99823.97;;;19.32;82.45
21276;BME280;36472;52.170;20.884;2023-07-31T01:44:43;99828.66;;;19.30;83.03
21276;BME280;36472;52.170;20.884;2023-07-31T01:47:12;99835.78;;;19.30;83.32
21276;BME280;36472;52.170;20.884;2023-07-31T01:49:41;99834.31;;;19.27;82.63
21276;BME280;36472;52.170;20.884;2023-07-31T01:52:10;99832.78;;;19.24;83.17
21276;BME280;36472;52.170;20.884;2023-07-31T01:54:40;99836.47;;;19.23;83.21
21276;BME280;36472;52.170;20.884;2023-07-31T01:57:09;99837.97;;;19.26;82.63
21276;BME280;36472;52.170;20.884;2023-07-31T01:59:39;99834.00;;;19.22;83.00
21276;BME280;36472;52.170;20.884;2023-07-31T02:02:08;99825.66;;;19.17;83.16
21276;BME280;36472;52.170;20.884;2023-07-31T02:04:37;99832.84;;;19.08;84.09
21276;BME280;36472;52.170;20.884;2023-07-31T02:07:08;99830.84;;;19.10;84.57
21276;BME280;36472;52.170;20.884;2023-07-31T02:09:37;99827.84;;;19.13;84.25
21276;BME280;36472;52.170;20.884;2023-07-31T02:12:07;99829.66;;;19.13;84.25
21276;BME280;36472;52.170;20.884;2023-07-31T02:14:39;99841.00;;;19.15;84.48
21276;BME280;36472;52.170;20.884;2023-07-31T02:17:08;99844.66;;;19.14;84.59
21276;BME280;36472;52.170;20.884;2023-07-31T02:19:37;99849.00;;;19.15;84.34
21276;BME280;36472;52.170;20.884;2023-07-31T02:22:05;99854.31;;;19.15;84.38
21276;BME280;36472;52.170;20.884;2023-07-31T02:24:34;99842.16;;;19.12;84.58
21276;BME280;36472;52.170;20.884;2023-07-31T02:27:04;99854.66;;;19.12;84.72
21276;BME280;36472;52.170;20.884;2023-07-31T02:29:34;99853.13;;;19.09;84.74
21276;BME280;36472;52.170;20.884;2023-07-31T02:32:04;99852.97;;;19.11;84.70
21276;BME280;36472;52.170;20.884;2023-07-31T02:34:34;99854.31;;;19.15;84.35
21276;BME280;36472;52.170;20.884;2023-07-31T02:37:03;99850.63;;;19.16;84.22
21276;BME280;36472;52.170;20.884;2023-07-31T02:39:32;99862.47;;;19.13;84.36
21276;BME280;36472;52.170;20.884;2023-07-31T02:42:01;99861.63;;;19.13;84.68
21276;BME280;36472;52.170;20.884;2023-07-31T02:44:32;99863.78;;;19.17;84.47
21276;BME280;36472;52.170;20.884;2023-07-31T02:47:00;99853.47;;;19.14;84.79
21276;BME280;36472;52.170;20.884;2023-07-31T02:49:32;99849.66;;;19.17;84.61
21276;BME280;36472;52.170;20.884;2023-07-31T02:52:01;99846.66;;;19.12;84.15
21276;BME280;36472;52.170;20.884;2023-07-31T02:54:30;99842.97;;;19.21;83.65
21276;BME280;36472;52.170;20.884;2023-07-31T02:56:59;99851.97;;;19.20;83.59
21276;BME280;36472;52.170;20.884;2023-07-31T02:59:28;99854.44;;;19.21;83.24
21276;BME280;36472;52.170;20.884;2023-07-31T03:01:57;99854.97;;;19.25;83.53
21276;BME280;36472;52.170;20.884;2023-07-31T03:04:26;99850.28;;;19.27;83.21
21276;BME280;36472;52.170;20.884;2023-07-31T03:06:57;99855.44;;;19.29;82.90
21276;BME280;36472;52.170;20.884;2023-07-31T03:09:27;99850.63;;;19.32;82.90
21276;BME280;36472;52.170;20.884;2023-07-31T03:11:56;99848.94;;;19.31;82.14
21276;BME280;36472;52.170;20.884;2023-07-31T03:14:24;99854.25;;;19.31;82.25
21276;BME280;36472;52.170;20.884;2023-07-31T03:16:54;99859.44;;;19.33;81.88
21276;BME280;36472;52.170;20.884;2023-07-31T03:19:23;99860.56;;;19.38;82.17
21276;BME280;36472;52.170;20.884;2023-07-31T03:21:52;99861.59;;;19.37;81.86
21276;BME280;36472;52.170;20.884;2023-07-31T03:24:22;99868.56;;;19.38;81.79
21276;BME280;36472;52.170;20.884;2023-07-31T03:26:51;99870.22;;;19.39;81.67
21276;BME280;36472;52.170;20.884;2023-07-31T03:29:20;99864.25;;;19.37;81.78
21276;BME280;36472;52.170;20.884;2023-07-31T03:31:52;99869.41;;;19.39;81.48
21276;BME280;36472;52.170;20.884;2023-07-31T03:34:21;99876.22;;;19.41;81.52
21276;BME280;36472;52.170;20.884;2023-07-31T03:36:50;99871.91;;;19.40;81.85
21276;BME280;36472;52.170;20.884;2023-07-31T03:39:20;99879.53;;;19.43;82.11
21276;BME280;36472;52.170;20.884;2023-07-31T03:41:51;99878.38;;;19.46;81.53
21276;BME280;36472;52.170;20.884;2023-07-31T03:44:21;99878.53;;;19.44;81.58
21276;BME280;36472;52.170;20.884;2023-07-31T03:46:49;99887.84;;;19.49;81.84
21276;BME280;36472;52.170;20.884;2023-07-31T03:49:19;99889.88;;;19.47;81.59
21276;BME280;36472;52.170;20.884;2023-07-31T03:51:49;99887.38;;;19.45;81.67
21276;BME280;36472;52.170;20.884;2023-07-31T03:54:18;99898.19;;;19.43;82.04
21276;BME280;36472;52.170;20.884;2023-07-31T03:56:47;99894.84;;;19.50;81.44
21276;BME280;36472;52.170;20.884;2023-07-31T03:59:18;99893.88;;;19.42;81.44
21276;BME280;36472;52.170;20.884;2023-07-31T04:01:46;99892.34;;;19.48;81.32
21276;BME280;36472;52.170;20.884;2023-07-31T04:04:16;99896.00;;;19.47;80.64
21276;BME280;36472;52.170;20.884;2023-07-31T04:06:44;99890.19;;;19.43;80.65
21276;BME280;36472;52.170;20.884;2023-07-31T04:09:13;99898.19;;;19.43;80.77
21276;BME280;36472;52.170;20.884;2023-07-31T04:11:42;99902.84;;;19.50;80.86
21276;BME280;36472;52.170;20.884;2023-07-31T04:14:11;99908.34;;;19.48;80.28
21276;BME280;36472;52.170;20.884;2023-07-31T04:16:42;99909.88;;;19.42;80.17
21276;BME280;36472;52.170;20.884;2023-07-31T04:19:11;99909.00;;;19.42;80.55
21276;BME280;36472;52.170;20.884;2023-07-31T04:21:44;99908.03;;;19.43;80.20
21276;BME280;36472;52.170;20.884;2023-07-31T04:24:13;99911.69;;;19.42;80.16
21276;BME280;36472;52.170;20.884;2023-07-31T04:26:42;99915.53;;;19.39;79.92
21276;BME280;36472;52.170;20.884;2023-07-31T04:29:11;99917.00;;;19.42;80.21
21276;BME280;36472;52.170;20.884;2023-07-31T04:31:41;99917.53;;;19.46;80.23
21276;BME280;36472;52.170;20.884;2023-07-31T04:34:10;99916.19;;;19.41;80.01
21276;BME280;36472;52.170;20.884;2023-07-31T04:36:40;99915.03;;;19.44;80.14
21276;BME280;36472;52.170;20.884;2023-07-31T04:39:09;99917.53;;;19.46;80.04
21276;BME280;36472;52.170;20.884;2023-07-31T04:41:38;99916.00;;;19.51;79.86
21276;BME280;36472;52.170;20.884;2023-07-31T04:44:07;99921.84;;;19.47;79.90
21276;BME280;36472;52.170;20.884;2023-07-31T04:46:35;99922.97;;;19.52;79.44
21276;BME280;36472;52.170;20.884;2023-07-31T04:49:07;99922.00;;;19.53;79.04
21276;BME280;36472;52.170;20.884;2023-07-31T04:51:36;99924.81;;;19.52;78.83
21276;BME280;36472;52.170;20.884;2023-07-31T04:54:05;99916.81;;;19.52;78.72
21276;BME280;36472;52.170;20.884;2023-07-31T04:56:33;99928.63;;;19.57;78.88
21276;BME280;36472;52.170;20.884;2023-07-31T04:59:02;99922.63;;;19.63;78.40
21276;BME280;36472;52.170;20.884;2023-07-31T05:01:31;99930.13;;;19.60;78.21
21276;BME280;36472;52.170;20.884;2023-07-31T05:04:00;99927.47;;;19.60;78.61
21276;BME280;36472;52.170;20.884;2023-07-31T05:06:32;99931.28;;;19.66;78.29
21276;BME280;36472;52.170;20.884;2023-07-31T05:09:01;99934.81;;;19.66;78.27
21276;BME280;36472;52.170;20.884;2023-07-31T05:11:30;99927.47;;;19.60;78.26
21276;BME280;36472;52.170;20.884;2023-07-31T05:13:59;99938.31;;;19.58;78.77
21276;BME280;36472;52.170;20.884;2023-07-31T05:16:28;99930.63;;;19.63;78.28
21276;BME280;36472;52.170;20.884;2023-07-31T05:18:58;99932.97;;;19.67;77.69
21276;BME280;36472;52.170;20.884;2023-07-31T05:21:26;99935.63;;;19.67;77.56
21276;BME280;36472;52.170;20.884;2023-07-31T05:23:57;99934.28;;;19.71;77.96
21276;BME280;36472;52.170;20.884;2023-07-31T05:26:26;99940.78;;;19.68;77.94
21276;BME280;36472;52.170;20.884;2023-07-31T05:28:55;99944.44;;;19.84;77.98
21276;BME280;36472;52.170;20.884;2023-07-31T05:31:25;99948.13;;;19.74;77.56
21276;BME280;36472;52.170;20.884;2023-07-31T05:33:54;99945.28;;;19.76;77.30
21276;BME280;36472;52.170;20.884;2023-07-31T05:36:23;99949.44;;;19.70;77.58
21276;BME280;36472;52.170;20.884;2023-07-31T05:38:52;99959.31;;;19.78;77.21
21276;BME280;36472;52.170;20.884;2023-07-31T05:41:23;99951.13;;;19.71;76.86
21276;BME280;36472;52.170;20.884;2023-07-31T05:43:52;99953.63;;;19.73;76.69
21276;BME280;36472;52.170;20.884;2023-07-31T05:46:20;99959.28;;;19.70;76.73
21276;BME280;36472;52.170;20.884;2023-07-31T05:48:50;99954.78;;;19.70;76.82
21276;BME280;36472;52.170;20.884;2023-07-31T05:51:18;99961.09;;;19.69;77.23
21276;BME280;36472;52.170;20.884;2023-07-31T05:53:48;99968.59;;;19.74;77.30
21276;BME280;36472;52.170;20.884;2023-07-31T05:56:16;99968.28;;;19.77;77.43
21276;BME280;36472;52.170;20.884;2023-07-31T05:58:47;99964.09;;;19.74;77.96
21276;BME280;36472;52.170;20.884;2023-07-31T06:01:16;99966.44;;;19.77;78.82
21276;BME280;36472;52.170;20.884;2023-07-31T06:03:46;99975.94;;;19.80;78.50
21276;BME280;36472;52.170;20.884;2023-07-31T06:06:15;99976.44;;;19.75;78.75
21276;BME280;36472;52.170;20.884;2023-07-31T06:08:44;99977.09;;;19.86;78.25
21276;BME280;36472;52.170;20.884;2023-07-31T06:11:13;99979.75;;;19.86;78.70
21276;BME280;36472;52.170;20.884;2023-07-31T06:13:42;99982.44;;;19.86;78.98
21276;BME280;36472;52.170;20.884;2023-07-31T06:16:13;99984.44;;;19.84;80.09
21276;BME280;36472;52.170;20.884;2023-07-31T06:18:43;99975.09;;;19.79;78.38
21276;BME280;36472;52.170;20.884;2023-07-31T06:21:12;99984.75;;;19.64;79.23
21276;BME280;36472;52.170;20.884;2023-07-31T06:23:41;99984.09;;;19.62;79.13
21276;BME280;36472;52.170;20.884;2023-07-31T06:26:10;99992.25;;;19.60;79.35
21276;BME280;36472;52.170;20.884;2023-07-31T06:28:39;99981.13;;;19.57;79.84
21276;BME280;36472;52.170;20.884;2023-07-31T06:31:08;99988.63;;;19.61;80.46
21276;BME280;36472;52.170;20.884;2023-07-31T06:33:39;99981.28;;;19.63;79.94
21276;BME280;36472;52.170;20.884;2023-07-31T06:36:08;99980.13;;;19.66;80.25
21276;BME280;36472;52.170;20.884;2023-07-31T06:38:37;99986.44;;;19.73;80.28
21276;BME280;36472;52.170;20.884;2023-07-31T06:41:06;99972.78;;;19.76;79.78
21276;BME280;36472;52.170;20.884;2023-07-31T06:43:35;99987.44;;;19.80;79.45
21276;BME280;36472;52.170;20.884;2023-07-31T06:46:05;99992.44;;;19.75;78.67
21276;BME280;36472;52.170;20.884;2023-07-31T06:48:34;99999.44;;;19.76;78.52
21276;BME280;36472;52.170;20.884;2023-07-31T06:51:05;100005.59;;;19.77;79.18
21276;BME280;36472;52.170;20.884;2023-07-31T06:53:34;99993.75;;;19.88;78.68
21276;BME280;36472;52.170;20.884;2023-07-31T06:56:04;100001.25;;;19.92;77.59
21276;BME280;36472;52.170;20.884;2023-07-31T06:58:33;99987.41;;;19.97;77.23
21276;BME280;36472;52.170;20.884;2023-07-31T07:01:02;99993.56;;;19.97;78.10
21276;BME280;36472;52.170;20.884;2023-07-31T07:03:32;99994.38;;;20.06;77.13
21276;BME280;36472;52.170;20.884;2023-07-31T07:06:01;99981.50;;;20.10;77.02
21276;BME280;36472;52.170;20.884;2023-07-31T07:08:31;99988.50;;;20.19;76.94
21276;BME280;36472;52.170;20.884;2023-07-31T07:11:00;99994.22;;;20.39;75.30
21276;BME280;36472;52.170;20.884;2023-07-31T07:13:29;99992.63;;;20.61;74.31
21276;BME280;36472;52.170;20.884;2023-07-31T07:15:58;99987.22;;;20.78;73.59
21276;BME280;36472;52.170;20.884;2023-07-31T07:18:27;99990.16;;;20.91;72.49
21276;BME280;36472;52.170;20.884;2023-07-31T07:20:56;99993.72;;;21.06;71.94
21276;BME280;36472;52.170;20.884;2023-07-31T07:23:26;99998.91;;;21.23;70.07
21276;BME280;36472;52.170;20.884;2023-07-31T07:25:56;99999.19;;;21.28;70.55
21276;BME280;36472;52.170;20.884;2023-07-31T07:28:25;99993.78;;;21.59;70.83
21276;BME280;36472;52.170;20.884;2023-07-31T07:30:56;99983.56;;;21.93;69.24
21276;BME280;36472;52.170;20.884;2023-07-31T07:33:26;99985.59;;;22.20;67.50
21276;BME280;36472;52.170;20.884;2023-07-31T07:35:54;99980.88;;;22.37;65.97
21276;BME280;36472;52.170;20.884;2023-07-31T07:38:23;99986.22;;;22.52;65.73
21276;BME280;36472;52.170;20.884;2023-07-31T07:40:53;99983.34;;;22.54;64.16
21276;BME280;36472;52.170;20.884;2023-07-31T07:43:24;99991.84;;;22.57;64.73
21276;BME280;36472;52.170;20.884;2023-07-31T07:45:52;99991.84;;;22.57;66.79
21276;BME280;36472;52.170;20.884;2023-07-31T07:48:22;99990.72;;;22.67;65.11
21276;BME280;36472;52.170;20.884;2023-07-31T07:50:52;99991.34;;;22.69;63.46
21276;BME280;36472;52.170;20.884;2023-07-31T07:53:21;100001.09;;;22.55;63.02
21276;BME280;36472;52.170;20.884;2023-07-31T07:55:50;99988.16;;;22.58;62.46
21276;BME280;36472;52.170;20.884;2023-07-31T07:58:19;99990.38;;;22.55;62.90
21276;BME280;36472;52.170;20.884;2023-07-31T08:00:52;99992.75;;;22.65;63.08
21276;BME280;36472;52.170;20.884;2023-07-31T08:03:22;99994.38;;;22.81;62.00
21276;BME280;36472;52.170;20.884;2023-07-31T08:05:51;99997.75;;;22.89;60.62
21276;BME280;36472;52.170;20.884;2023-07-31T08:08:20;99996.97;;;22.74;61.42
21276;BME280;36472;52.170;20.884;2023-07-31T08:10:49;99985.75;;;22.64;60.43
21276;BME280;36472;52.170;20.884;2023-07-31T08:13:18;99989.75;;;22.74;61.47
21276;BME280;36472;52.170;20.884;2023-07-31T08:15:47;99989.97;;;22.94;60.89
21276;BME280;36472;52.170;20.884;2023-07-31T08:18:18;99994.09;;;22.97;61.19
21276;BME280;36472;52.170;20.884;2023-07-31T08:20:47;99993.78;;;23.22;61.67
21276;BME280;36472;52.170;20.884;2023-07-31T08:23:16;99987.84;;;23.55;58.86
21276;BME280;36472;52.170;20.884;2023-07-31T08:25:45;99987.88;;;23.61;57.20
21276;BME280;36472;52.170;20.884;2023-07-31T08:28:15;99982.75;;;23.66;56.34
21276;BME280;36472;52.170;20.884;2023-07-31T08:30:44;99983.81;;;23.72;55.76
21276;BME280;36472;52.170;20.884;2023-07-31T08:33:13;99992.22;;;23.90;57.28
21276;BME280;36472;52.170;20.884;2023-07-31T08:35:43;99981.25;;;23.85;54.48
21276;BME280;36472;52.170;20.884;2023-07-31T08:38:12;99989.34;;;23.92;55.75
21276;BME280;36472;52.170;20.884;2023-07-31T08:40:41;99984.50;;;24.09;55.80
21276;BME280;36472;52.170;20.884;2023-07-31T08:43:11;99985.34;;;24.16;54.98
21276;BME280;36472;52.170;20.884;2023-07-31T08:45:42;99988.25;;;24.21;55.19
21276;BME280;36472;52.170;20.884;2023-07-31T08:48:12;99982.13;;;24.34;54.78
21276;BME280;36472;52.170;20.884;2023-07-31T08:50:43;99987.34;;;24.49;53.51
21276;BME280;36472;52.170;20.884;2023-07-31T08:53:13;99982.66;;;24.64;52.13
21276;BME280;36472;52.170;20.884;2023-07-31T08:55:42;99988.78;;;24.45;51.94
21276;BME280;36472;52.170;20.884;2023-07-31T08:58:13;99984.19;;;24.39;52.79
21276;BME280;36472;52.170;20.884;2023-07-31T09:00:46;99986.75;;;24.54;52.97
21276;BME280;36472;52.170;20.884;2023-07-31T09:03:20;99978.97;;;24.66;52.47
21276;BME280;36472;52.170;20.884;2023-07-31T09:05:51;99984.38;;;24.79;49.71
21276;BME280;36472;52.170;20.884;2023-07-31T09:08:22;99984.41;;;24.92;50.24
21276;BME280;36472;52.170;20.884;2023-07-31T09:10:51;99986.03;;;24.87;49.24
21276;BME280;36472;52.170;20.884;2023-07-31T09:13:20;99993.09;;;25.01;49.15
21276;BME280;36472;52.170;20.884;2023-07-31T09:15:49;99995.56;;;24.96;49.75
21276;BME280;36472;52.170;20.884;2023-07-31T09:18:18;99995.16;;;25.12;49.08
21276;BME280;36472;52.170;20.884;2023-07-31T09:21:03;99992.28;;;25.20;48.63
21276;BME280;36472;52.170;20.884;2023-07-31T09:23:43;99983.59;;;25.25;49.58
21276;BME280;36472;52.170;20.884;2023-07-31T09:26:29;99986.13;;;25.33;49.49
21276;BME280;36472;52.170;20.884;2023-07-31T09:28:59;99991.91;;;25.30;48.33
21276;BME280;36472;52.170;20.884;2023-07-31T09:31:42;99988.56;;;25.42;47.58
21276;BME280;36472;52.170;20.884;2023-07-31T09:34:11;99980.94;;;25.32;46.31
21276;BME280;36472;52.170;20.884;2023-07-31T09:36:44;99987.94;;;25.19;46.20
21276;BME280;36472;52.170;20.884;2023-07-31T09:39:15;99984.00;;;25.22;45.74
21276;BME280;36472;52.170;20.884;2023-07-31T09:41:47;99984.19;;;25.14;46.43
21276;BME280;36472;52.170;20.884;2023-07-31T09:44:16;99980.91;;;25.25;47.16
21276;BME280;36472;52.170;20.884;2023-07-31T09:46:45;99980.09;;;25.51;45.83
21276;BME280;36472;52.170;20.884;2023-07-31T09:49:14;99980.28;;;25.56;46.21
21276;BME280;36472;52.170;20.884;2023-07-31T09:51:45;99990.00;;;25.78;44.75
21276;BME280;36472;52.170;20.884;2023-07-31T09:54:16;99988.28;;;26.10;43.70
21276;BME280;36472;52.170;20.884;2023-07-31T09:56:47;99982.41;;;26.33;42.37
21276;BME280;36472;52.170;20.884;2023-07-31T09:59:19;99982.56;;;26.45;41.68
21276;BME280;36472;52.170;20.884;2023-07-31T10:01:51;99984.69;;;26.36;42.05
21276;BME280;36472;52.170;20.884;2023-07-31T10:04:27;99977.84;;;26.27;42.23
21276;BME280;36472;52.170;20.884;2023-07-31T10:07:00;99982.56;;;26.45;42.02
21276;BME280;36472;52.170;20.884;2023-07-31T10:09:33;99969.47;;;26.48;41.42
21276;BME280;36472;52.170;20.884;2023-07-31T10:12:08;99981.22;;;26.61;40.99
21276;BME280;36472;52.170;20.884;2023-07-31T10:14:39;99977.72;;;26.67;39.18
21276;BME280;36472;52.170;20.884;2023-07-31T10:17:10;99983.53;;;26.64;39.34
21276;BME280;36472;52.170;20.884;2023-07-31T10:19:40;99976.59;;;26.75;38.66
21276;BME280;36472;52.170;20.884;2023-07-31T10:22:12;99968.44;;;26.88;38.28
21276;BME280;36472;52.170;20.884;2023-07-31T10:24:43;99966.53;;;27.20;37.61
21276;BME280;36472;52.170;20.884;2023-07-31T10:27:12;99977.69;;;27.56;37.43
21276;BME280;36472;52.170;20.884;2023-07-31T10:29:43;99971.03;;;27.77;35.58
21276;BME280;36472;52.170;20.884;2023-07-31T10:32:17;99966.72;;;27.94;36.35
21276;BME280;36472;52.170;20.884;2023-07-31T10:34:47;99973.69;;;28.39;36.49
21276;BME280;36472;52.170;20.884;2023-07-31T10:37:30;99971.47;;;28.78;35.78
21276;BME280;36472;52.170;20.884;2023-07-31T10:40:10;99970.06;;;28.76;34.89
21276;BME280;36472;52.170;20.884;2023-07-31T10:42:49;99968.31;;;28.51;34.71
21276;BME280;36472;52.170;20.884;2023-07-31T10:45:26;99968.00;;;28.29;34.17
21276;BME280;36472;52.170;20.884;2023-07-31T10:48:00;99983.31;;;27.98;35.48
21276;BME280;36472;52.170;20.884;2023-07-31T10:50:32;99986.63;;;27.75;35.45
21276;BME280;36472;52.170;20.884;2023-07-31T10:53:02;99977.69;;;27.56;35.45
21276;BME280;36472;52.170;20.884;2023-07-31T10:55:35;99976.94;;;27.49;36.06
21276;BME280;36472;52.170;20.884;2023-07-31T10:58:08;99973.78;;;27.27;37.52
21276;BME280;36472;52.170;20.884;2023-07-31T11:00:40;99979.44;;;27.18;36.91
21276;BME280;36472;52.170;20.884;2023-07-31T11:03:14;99975.47;;;26.96;37.26
21276;BME280;36472;52.170;20.884;2023-07-31T11:05:50;99963.09;;;26.81;36.38
21276;BME280;36472;52.170;20.884;2023-07-31T11:08:25;99969.91;;;26.91;38.39
21276;BME280;36472;52.170;20.884;2023-07-31T11:11:06;99979.47;;;27.12;36.62
21276;BME280;36472;52.170;20.884;2023-07-31T11:13:44;99969.69;;;27.17;37.21
21276;BME280;36472;52.170;20.884;2023-07-31T11:16:14;99967.66;;;27.38;36.79
21276;BME280;36472;52.170;20.884;2023-07-31T11:18:45;99970.41;;;27.56;36.09
21276;BME280;36472;52.170;20.884;2023-07-31T11:21:16;99968.63;;;27.50;36.60
21276;BME280;36472;52.170;20.884;2023-07-31T11:23:48;99967.81;;;27.43;36.45
21276;BME280;36472;52.170;20.884;2023-07-31T11:26:19;99966.09;;;27.30;36.50
21276;BME280;36472;52.170;20.884;2023-07-31T11:28:49;99961.41;;;27.12;37.05
21276;BME280;36472;52.170;20.884;2023-07-31T11:31:19;99960.16;;;26.90;37.13
21276;BME280;36472;52.170;20.884;2023-07-31T11:33:48;99962.03;;;26.89;38.58
21276;BME280;36472;52.170;20.884;2023-07-31T11:36:20;99955.63;;;26.83;37.37
21276;BME280;36472;52.170;20.884;2023-07-31T11:38:50;99958.25;;;26.65;37.63
21276;BME280;36472;52.170;20.884;2023-07-31T11:41:19;99960.63;;;26.41;38.61
21276;BME280;36472;52.170;20.884;2023-07-31T11:43:48;99960.66;;;26.28;38.75
21276;BME280;36472;52.170;20.884;2023-07-31T11:46:17;99957.63;;;26.11;40.18
21276;BME280;36472;52.170;20.884;2023-07-31T11:48:48;99949.97;;;26.08;39.79
21276;BME280;36472;52.170;20.884;2023-07-31T11:51:20;99948.13;;;26.08;40.57
21276;BME280;36472;52.170;20.884;2023-07-31T11:53:55;99954.94;;;26.11;40.47
21276;BME280;36472;52.170;20.884;2023-07-31T11:56:26;99949.56;;;26.04;41.43
21276;BME280;36472;52.170;20.884;2023-07-31T11:58:59;99954.97;;;25.84;40.83
21276;BME280;36472;52.170;20.884;2023-07-31T12:01:31;99946.75;;;25.72;40.97
21276;BME280;36472;52.170;20.884;2023-07-31T12:04:01;99945.50;;;25.75;41.20
21276;BME280;36472;52.170;20.884;2023-07-31T12:06:34;99941.78;;;25.69;41.38
21276;BME280;36472;52.170;20.884;2023-07-31T12:09:05;99946.13;;;25.70;41.23
21276;BME280;36472;52.170;20.884;2023-07-31T12:11:43;99939.31;;;25.68;41.95
21276;BME280;36472;52.170;20.884;2023-07-31T12:14:20;99940.53;;;25.72;41.99
21276;BME280;36472;52.170;20.884;2023-07-31T12:16:55;99942.63;;;25.63;41.89
21276;BME280;36472;52.170;20.884;2023-07-31T12:19:26;99943.44;;;25.70;41.73
21276;BME280;36472;52.170;20.884;2023-07-31T12:21:59;99938.03;;;25.70;42.89
21276;BME280;36472;52.170;20.884;2023-07-31T12:24:29;99942.00;;;25.74;41.92
21276;BME280;36472;52.170;20.884;2023-07-31T12:26:58;99933.31;;;25.72;42.61
21276;BME280;36472;52.170;20.884;2023-07-31T12:29:34;99930.56;;;25.79;42.09
21276;BME280;36472;52.170;20.884;2023-07-31T12:32:21;99930.16;;;25.75;42.54
21276;BME280;36472;52.170;20.884;2023-07-31T12:34:51;99923.75;;;25.76;43.55
21276;BME280;36472;52.170;20.884;2023-07-31T12:37:21;99926.44;;;25.76;43.30
21276;BME280;36472;52.170;20.884;2023-07-31T12:39:51;99925.84;;;25.74;42.16
21276;BME280;36472;52.170;20.884;2023-07-31T12:42:20;99925.25;;;25.59;41.21
21276;BME280;36472;52.170;20.884;2023-07-31T12:44:49;99914.72;;;25.44;42.30
21276;BME280;36472;52.170;20.884;2023-07-31T12:47:18;99905.63;;;25.45;42.22
21276;BME280;36472;52.170;20.884;2023-07-31T12:49:47;99914.94;;;25.43;40.30
21276;BME280;36472;52.170;20.884;2023-07-31T12:52:16;99904.16;;;25.43;41.54
21276;BME280;36472;52.170;20.884;2023-07-31T12:54:45;99900.47;;;25.44;40.27
21276;BME280;36472;52.170;20.884;2023-07-31T12:57:15;99903.34;;;25.42;41.26
21276;BME280;36472;52.170;20.884;2023-07-31T12:59:44;99898.16;;;25.47;41.06
21276;BME280;36472;52.170;20.884;2023-07-31T13:02:13;99901.47;;;25.49;41.19
21276;BME280;36472;52.170;20.884;2023-07-31T13:04:45;99891.09;;;25.60;40.35
21276;BME280;36472;52.170;20.884;2023-07-31T13:07:14;99896.66;;;25.71;40.09